createdAt,value
2022-11-24T00:01:06.617Z,7.14
2022-11-24T00:03:33.365Z,7.14
2022-11-24T00:06:11.085Z,7.15
2022-11-24T00:08:39.364Z,7.05
2022-11-24T00:11:08.703Z,7.03
2022-11-24T00:13:36.108Z,7.09
2022-11-24T00:16:19.419Z,7.06
2022-11-24T00:18:49.332Z,7.05
2022-11-24T00:21:17.700Z,7.10
2022-11-24T00:23:45.060Z,7.06
2022-11-24T00:26:13.543Z,7.00
2022-11-24T00:28:41.430Z,7.03
2022-11-24T00:31:36.327Z,7.01
2022-11-24T00:34:07.260Z,7.06
2022-11-24T00:36:35.753Z,7.09
2022-11-24T00:39:05.703Z,6.94
2022-11-24T00:41:33.113Z,7.03
2022-11-24T00:44:00.100Z,7.02
2022-11-24T00:46:27.838Z,7.01
2022-11-24T00:48:54.988Z,7.04
2022-11-24T00:51:24.210Z,7.05
2022-11-24T00:53:50.648Z,7.06
2022-11-24T00:56:17.148Z,7.03
2022-11-24T00:58:43.651Z,7.05
2022-11-24T01:01:14.897Z,7.03
2022-11-24T01:03:42.526Z,7.07
2022-11-24T01:06:14.780Z,7.03
2022-11-24T01:08:41.792Z,7.02
2022-11-24T01:11:13.151Z,7.05
2022-11-24T01:13:40.596Z,7.00
2022-11-24T01:16:13.905Z,6.97
2022-11-24T01:18:40.425Z,6.99
2022-11-24T01:21:10.019Z,6.98
2022-11-24T01:23:37.048Z,7.01
2022-11-24T01:26:05.821Z,6.98
2022-11-24T01:28:32.472Z,6.96
2022-11-24T01:31:06.085Z,6.97
2022-11-24T01:33:33.996Z,6.97
2022-11-24T01:36:01.223Z,7.01
2022-11-24T01:38:28.080Z,7.01
2022-11-24T01:41:03.081Z,6.96
2022-11-24T01:43:29.622Z,7.01
2022-11-24T01:45:57.131Z,7.02
2022-11-24T01:48:29.832Z,7.06
2022-11-24T01:51:08.329Z,7.06
2022-11-24T01:53:35.827Z,7.08
2022-11-24T01:56:03.073Z,7.05
2022-11-24T01:58:33.285Z,7.06
2022-11-24T02:01:00.465Z,7.05
2022-11-24T02:03:30.999Z,7.04
2022-11-24T02:06:10.982Z,7.07
2022-11-24T02:09:11.297Z,7.07
2022-11-24T02:11:39.716Z,7.06
2022-11-24T02:14:09.370Z,7.09
2022-11-24T02:16:36.802Z,7.11
2022-11-24T02:19:16.532Z,7.11
2022-11-24T02:21:43.065Z,7.10
2022-11-24T02:24:31.604Z,7.21
2022-11-24T02:26:58.701Z,7.26
2022-11-24T02:29:25.391Z,7.21
2022-11-24T02:31:59.217Z,7.17
2022-11-24T02:34:25.731Z,7.18
2022-11-24T02:36:52.199Z,7.20
2022-11-24T02:39:18.770Z,7.21
2022-11-24T02:42:00.208Z,7.20
2022-11-24T02:44:33.083Z,7.22
2022-11-24T02:47:06.934Z,7.23
2022-11-24T02:49:33.796Z,7.23
2022-11-24T02:52:01.131Z,7.20
2022-11-24T02:54:28.105Z,7.27
2022-11-24T02:56:54.657Z,7.28
2022-11-24T02:59:21.433Z,7.25
2022-11-24T03:01:47.988Z,7.21
2022-11-24T03:04:14.587Z,7.21
2022-11-24T03:06:42.243Z,7.21
2022-11-24T03:09:10.376Z,7.17
2022-11-24T03:11:37.923Z,7.20
2022-11-24T03:14:05.202Z,7.23
2022-11-24T03:16:32.322Z,7.24
2022-11-24T03:18:59.396Z,7.21
2022-11-24T03:21:25.907Z,7.21
2022-11-24T03:23:53.540Z,7.21
2022-11-24T03:26:22.959Z,7.22
2022-11-24T03:28:49.461Z,7.25
2022-11-24T03:31:15.998Z,7.22
2022-11-24T03:33:42.560Z,7.24
2022-11-24T03:36:09.577Z,7.23
2022-11-24T03:38:36.301Z,7.25
2022-11-24T03:41:02.806Z,7.25
2022-11-24T03:43:29.276Z,7.25
2022-11-24T03:45:55.837Z,7.25
2022-11-24T03:48:22.375Z,7.30
2022-11-24T03:50:57.267Z,7.27
2022-11-24T03:53:26.042Z,7.24
2022-11-24T03:55:53.465Z,7.29
2022-11-24T03:58:19.982Z,7.33
2022-11-24T04:00:49.163Z,7.38
2022-11-24T04:03:16.283Z,7.37
2022-11-24T04:05:42.932Z,7.37
2022-11-24T04:08:09.396Z,7.44
2022-11-24T04:10:37.765Z,7.42
2022-11-24T04:13:10.051Z,7.43
2022-11-24T04:15:40.123Z,7.44
2022-11-24T04:18:07.432Z,7.42
2022-11-24T04:20:34.345Z,7.37
2022-11-24T04:23:00.915Z,7.35
2022-11-24T04:25:27.697Z,7.38
2022-11-24T04:27:55.904Z,7.38
2022-11-24T04:30:24.090Z,7.38
2022-11-24T04:32:50.802Z,7.41
2022-11-24T04:35:17.788Z,7.37
2022-11-24T04:37:44.323Z,7.38
2022-11-24T04:40:11.697Z,7.37
2022-11-24T04:42:38.578Z,7.35
2022-11-24T04:45:06.349Z,7.41
2022-11-24T04:47:33.158Z,7.43
2022-11-24T04:50:00.249Z,7.46
2022-11-24T04:52:26.926Z,7.44
2022-11-24T04:54:53.588Z,7.44
2022-11-24T04:57:25.429Z,7.41
2022-11-24T04:59:53.161Z,7.43
2022-11-24T05:02:20.123Z,7.44
2022-11-24T05:04:47.234Z,7.50
2022-11-24T05:07:18.795Z,7.49
2022-11-24T05:10:05.377Z,7.49
2022-11-24T05:12:31.989Z,7.53
2022-11-24T05:14:59.402Z,7.51
2022-11-24T05:17:34.322Z,7.50
2022-11-24T05:20:00.858Z,7.53
2022-11-24T05:22:29.145Z,7.57
2022-11-24T05:24:55.716Z,7.63
2022-11-24T05:27:22.325Z,7.59
2022-11-24T05:29:48.872Z,7.58
2022-11-24T05:32:15.722Z,7.60
2022-11-24T05:34:42.237Z,7.67
2022-11-24T05:37:08.960Z,7.67
2022-11-24T05:39:36.557Z,7.67
2022-11-24T05:42:25.213Z,7.61
2022-11-24T05:44:52.499Z,7.64
2022-11-24T05:47:19.879Z,7.59
2022-11-24T05:49:46.508Z,7.59
2022-11-24T05:52:13.611Z,7.66
2022-11-24T05:54:40.199Z,7.63
2022-11-24T05:57:06.905Z,7.59
2022-11-24T05:59:33.782Z,7.60
2022-11-24T06:02:00.701Z,7.57
2022-11-24T06:04:27.239Z,7.58
2022-11-24T06:06:53.754Z,7.57
2022-11-24T06:09:20.420Z,7.68
2022-11-24T06:11:48.186Z,7.67
2022-11-24T06:14:14.674Z,7.61
2022-11-24T06:16:41.313Z,7.69
2022-11-24T06:19:10.308Z,7.75
2022-11-24T06:21:36.826Z,7.73
2022-11-24T06:24:03.638Z,7.77
2022-11-24T06:26:30.116Z,7.71
2022-11-24T06:28:56.623Z,7.75
2022-11-24T06:31:23.417Z,7.70
2022-11-24T06:33:50.146Z,7.67
2022-11-24T06:36:16.723Z,7.62
2022-11-24T06:38:43.362Z,7.70
2022-11-24T06:41:13.141Z,7.76
2022-11-24T06:43:39.965Z,7.70
2022-11-24T06:46:07.143Z,7.72
2022-11-24T06:48:34.178Z,7.74
2022-11-24T06:51:02.641Z,7.75
2022-11-24T06:53:38.007Z,7.69
2022-11-24T06:56:13.789Z,7.68
2022-11-24T06:58:44.705Z,7.69
2022-11-24T07:01:23.347Z,7.58
2022-11-24T07:03:50.989Z,7.54
2022-11-24T07:06:18.636Z,7.58
2022-11-24T07:08:45.764Z,7.58
2022-11-24T07:11:15.577Z,7.47
2022-11-24T07:13:43.540Z,7.48
2022-11-24T07:16:17.010Z,7.52
2022-11-24T07:18:45.592Z,7.49
2022-11-24T07:21:12.414Z,7.49
2022-11-24T07:23:39.498Z,7.56
2022-11-24T07:26:07.641Z,7.56
2022-11-24T07:28:35.266Z,7.57
2022-11-24T07:31:06.066Z,7.63
2022-11-24T07:33:32.537Z,7.66
2022-11-24T07:36:03.096Z,7.62
2022-11-24T07:38:31.541Z,7.65
2022-11-24T07:41:03.085Z,7.68
2022-11-24T07:43:32.295Z,7.66
2022-11-24T07:45:59.189Z,7.68
2022-11-24T07:48:25.902Z,7.68
2022-11-24T07:50:55.699Z,7.70
2022-11-24T07:53:22.889Z,7.71
2022-11-24T07:55:58.166Z,7.72
2022-11-24T07:58:27.673Z,7.69
2022-11-24T08:00:58.476Z,7.73
2022-11-24T08:03:25.415Z,7.74
2022-11-24T08:08:46.655Z,7.76
2022-11-24T08:11:15.574Z,7.81
2022-11-24T08:13:42.750Z,7.85
2022-11-24T08:16:12.311Z,7.89
2022-11-24T08:18:39.237Z,7.89
2022-11-24T08:21:06.510Z,7.89
2022-11-24T08:23:33.770Z,7.94
2022-11-24T08:26:08.912Z,7.99
2022-11-24T08:28:35.655Z,8.01
2022-11-24T08:31:08.420Z,8.07
2022-11-24T08:33:35.938Z,8.09
2022-11-24T08:36:07.349Z,8.12
2022-11-24T08:38:34.343Z,8.17
2022-11-24T08:41:06.465Z,8.20
2022-11-24T08:43:33.184Z,8.28
2022-11-24T08:46:01.714Z,8.37
2022-11-24T08:48:29.118Z,8.36
2022-11-24T08:50:56.676Z,8.35
2022-11-24T08:53:23.689Z,8.37
2022-11-24T08:55:50.273Z,8.37
2022-11-24T08:58:16.988Z,8.38
2022-11-24T09:00:43.961Z,8.37
2022-11-24T09:03:11.710Z,8.38
2022-11-24T09:05:53.725Z,8.40
2022-11-24T09:08:20.711Z,8.42
2022-11-24T09:10:47.325Z,8.46
2022-11-24T09:13:13.870Z,8.49
2022-11-24T09:15:40.374Z,8.50
2022-11-24T09:18:07.009Z,8.50
2022-11-24T09:20:33.667Z,8.49
2022-11-24T09:23:00.325Z,8.52
2022-11-24T09:25:27.162Z,8.53
2022-11-24T09:27:54.543Z,8.54
2022-11-24T09:30:21.196Z,8.58
2022-11-24T09:32:47.775Z,8.61
2022-11-24T09:35:14.517Z,8.69
2022-11-24T09:37:41.316Z,8.74
2022-11-24T09:40:12.731Z,8.82
2022-11-24T09:43:04.887Z,8.82
2022-11-24T09:46:06.502Z,8.85
2022-11-24T09:48:40.709Z,8.89
2022-11-24T09:51:11.407Z,8.93
2022-11-24T09:53:48.463Z,8.98
2022-11-24T09:56:20.918Z,9.00
2022-11-24T09:58:53.677Z,9.02
2022-11-24T10:01:37.532Z,9.07
2022-11-24T10:04:11.057Z,9.07
2022-11-24T10:06:48.079Z,9.15
2022-11-24T10:09:27.127Z,9.16
2022-11-24T10:12:19.014Z,9.18
2022-11-24T10:14:52.254Z,9.19
2022-11-24T10:17:45.482Z,9.22
2022-11-24T10:20:47.707Z,9.29
2022-11-24T10:23:26.096Z,9.33
2022-11-24T10:25:58.724Z,9.34
2022-11-24T10:28:52.193Z,9.40
2022-11-24T10:31:33.653Z,9.43
2022-11-24T10:34:23.520Z,9.43
2022-11-24T10:36:56.075Z,9.49
2022-11-24T10:39:50.540Z,9.52
2022-11-24T10:42:26.287Z,9.55
2022-11-24T10:45:10.054Z,9.56
2022-11-24T10:47:36.609Z,9.63
2022-11-24T10:50:03.221Z,9.62
2022-11-24T10:52:35.215Z,9.66
2022-11-24T10:55:02.971Z,9.64
2022-11-24T10:57:35.660Z,9.64
2022-11-24T11:00:24.368Z,9.59
2022-11-24T11:03:11.334Z,9.63
2022-11-24T11:05:44.873Z,9.67
2022-11-24T11:08:14.309Z,9.71
2022-11-24T11:10:42.003Z,9.78
2022-11-24T11:13:28.405Z,9.81
2022-11-24T11:15:57.080Z,9.86
2022-11-24T11:18:32.646Z,9.88
2022-11-24T11:21:04.614Z,9.88
2022-11-24T11:23:32.402Z,9.92
2022-11-24T11:26:20.159Z,9.93
2022-11-24T11:35:03.590Z,10.00
2022-11-24T11:37:33.030Z,10.03
2022-11-24T11:40:00.305Z,10.02
2022-11-24T11:43:00.613Z,10.05
2022-11-24T11:45:31.839Z,10.06
2022-11-24T11:48:15.135Z,9.99
2022-11-24T11:53:54.506Z,10.01
2022-11-24T11:56:33.681Z,10.07
2022-11-24T11:59:12.811Z,10.10
2022-11-24T12:02:16.936Z,10.11
2022-11-24T12:05:00.720Z,10.11
2022-11-24T12:08:10.076Z,10.08
2022-11-24T12:11:00.095Z,10.10
2022-11-24T12:13:44.914Z,10.13
2022-11-24T12:16:30.983Z,10.14
2022-11-24T12:19:00.641Z,10.23
2022-11-24T12:21:36.118Z,10.27
2022-11-24T12:24:23.049Z,10.27
2022-11-24T12:26:52.492Z,10.27
2022-11-24T12:29:37.913Z,10.27
2022-11-24T12:32:22.496Z,10.24
2022-11-24T12:35:17.092Z,10.27
2022-11-24T12:37:57.950Z,10.31
2022-11-24T12:40:47.255Z,10.44
2022-11-24T12:43:22.865Z,10.51
2022-11-24T12:46:11.082Z,10.52
2022-11-24T12:48:55.704Z,10.63
2022-11-24T12:51:30.241Z,10.61
2022-11-24T12:53:58.405Z,10.63
2022-11-24T12:56:59.716Z,10.80
2022-11-24T12:59:45.312Z,10.82
2022-11-24T13:02:37.367Z,10.82
2022-11-24T13:05:32.035Z,10.77
2022-11-24T13:08:02.713Z,10.72
2022-11-24T13:13:22.365Z,10.79
2022-11-24T13:16:34.573Z,10.80
2022-11-24T13:18:42.955Z,10.72
2022-11-24T13:21:28.359Z,10.98
2022-11-24T13:23:58.675Z,10.67
2022-11-24T13:26:31.243Z,10.81
2022-11-24T13:29:17.877Z,10.57
2022-11-24T13:31:50.747Z,10.61
2022-11-24T13:34:39.339Z,10.68
2022-11-24T13:37:34.788Z,10.72
2022-11-24T13:40:11.650Z,10.61
2022-11-24T13:42:58.783Z,10.62
2022-11-24T13:45:41.123Z,10.64
2022-11-24T13:48:20.503Z,10.61
2022-11-24T13:50:50.809Z,10.68
2022-11-24T13:53:35.029Z,10.67
2022-11-24T13:56:13.937Z,10.70
2022-11-24T13:58:43.677Z,10.69
2022-11-24T14:01:16.549Z,10.62
2022-11-24T14:07:02.483Z,10.53
2022-11-24T14:09:45.963Z,10.53
2022-11-24T14:12:21.104Z,10.47
2022-11-24T14:14:49.922Z,10.57
2022-11-24T14:17:22.953Z,10.54
2022-11-24T14:19:52.714Z,10.67
2022-11-24T14:22:31.361Z,10.56
2022-11-24T14:25:00.641Z,10.63
2022-11-24T14:27:38.607Z,10.51
2022-11-24T14:30:18.386Z,10.58
2022-11-24T14:33:02.470Z,10.53
2022-11-24T14:35:34.649Z,10.47
2022-11-24T14:38:05.909Z,10.37
2022-11-24T14:40:42.999Z,10.48
2022-11-24T14:43:24.260Z,10.40
2022-11-24T14:45:59.505Z,10.26
2022-11-24T14:48:37.726Z,10.39
2022-11-24T14:51:18.190Z,10.29
2022-11-24T14:53:46.895Z,10.35
2022-11-24T14:56:29.855Z,10.32
2022-11-24T14:58:57.837Z,10.34
2022-11-24T15:01:27.179Z,10.28
2022-11-24T15:07:25.574Z,10.26
2022-11-24T15:09:57.610Z,10.15
2022-11-24T15:12:28.887Z,10.21
2022-11-24T15:15:00.174Z,10.19
2022-11-24T15:17:29.102Z,10.05
2022-11-24T15:20:02.791Z,10.05
2022-11-24T15:22:29.255Z,10.02
2022-11-24T15:24:55.797Z,10.07
2022-11-24T15:27:22.290Z,10.05
2022-11-24T15:29:49.578Z,10.03
2022-11-24T15:32:16.638Z,9.96
2022-11-24T15:34:43.357Z,9.95
2022-11-24T15:37:10.355Z,9.90
2022-11-24T15:39:36.941Z,9.87
2022-11-24T15:42:03.474Z,9.85
2022-11-24T15:44:30.079Z,9.79
2022-11-24T15:46:56.703Z,9.80
2022-11-24T15:49:23.384Z,9.77
2022-11-24T15:51:49.958Z,9.71
2022-11-24T15:54:18.686Z,9.70
2022-11-24T15:56:45.614Z,9.65
2022-11-24T15:59:20.543Z,9.52
2022-11-24T16:01:49.597Z,9.58
2022-11-24T16:04:16.443Z,9.49
2022-11-24T16:06:43.073Z,9.51
2022-11-24T16:09:14.478Z,9.47
2022-11-24T16:11:41.328Z,9.46
2022-11-24T16:14:07.917Z,9.36
2022-11-24T16:16:34.536Z,9.39
2022-11-24T16:19:01.157Z,9.42
2022-11-24T16:21:27.693Z,9.20
2022-11-24T16:23:54.483Z,9.20
2022-11-24T16:26:21.130Z,9.26
2022-11-24T16:28:47.715Z,9.19
2022-11-24T16:31:15.859Z,9.12
2022-11-24T16:33:44.530Z,9.19
2022-11-24T16:36:11.084Z,9.04
2022-11-24T16:38:37.543Z,9.01
2022-11-24T16:41:04.408Z,9.01
2022-11-24T16:43:30.987Z,8.86
2022-11-24T16:46:24.094Z,8.99
2022-11-24T16:48:52.757Z,9.01
2022-11-24T16:51:21.751Z,8.86
2022-11-24T16:53:48.869Z,8.84
2022-11-24T16:56:16.456Z,8.84
2022-11-24T16:58:42.985Z,8.94
2022-11-24T17:01:13.709Z,8.76
2022-11-24T17:03:40.940Z,8.74
2022-11-24T17:06:10.185Z,8.56
2022-11-24T17:08:39.383Z,8.84
2022-11-24T17:11:11.344Z,8.70
2022-11-24T17:13:38.254Z,8.72
2022-11-24T17:16:09.977Z,8.49
2022-11-24T17:18:37.329Z,8.61
2022-11-24T17:21:09.544Z,8.46
2022-11-24T17:23:36.622Z,8.66
2022-11-24T17:26:06.218Z,8.56
2022-11-24T17:28:32.711Z,8.55
2022-11-24T17:30:59.204Z,8.31
2022-11-24T17:33:25.682Z,8.29
2022-11-24T17:35:52.177Z,8.30
2022-11-24T17:38:18.917Z,8.38
2022-11-24T17:40:48.437Z,8.40
2022-11-24T17:43:14.914Z,8.46
2022-11-24T17:45:41.569Z,8.36
2022-11-24T17:48:08.364Z,8.36
2022-11-24T17:50:34.938Z,8.36
2022-11-24T17:53:01.408Z,8.21
2022-11-24T17:55:27.864Z,8.28
2022-11-24T17:57:55.808Z,8.55
2022-11-24T18:00:22.511Z,8.52
2022-11-24T18:02:49.119Z,8.34
2022-11-24T18:05:15.843Z,8.04
2022-11-24T18:07:42.369Z,8.33
2022-11-24T18:10:09.177Z,8.20
2022-11-24T18:12:35.653Z,8.50
2022-11-24T18:15:02.137Z,8.45
2022-11-24T18:17:29.037Z,8.61
2022-11-24T18:19:55.634Z,8.57
2022-11-24T18:22:42.931Z,8.52
2022-11-24T18:25:08.785Z,8.43
2022-11-24T18:27:35.356Z,8.39
2022-11-24T18:30:01.834Z,8.50
2022-11-24T18:32:28.273Z,8.67
2022-11-24T18:34:54.822Z,8.73
2022-11-24T18:37:21.346Z,8.54
2022-11-24T18:39:47.798Z,8.55
2022-11-24T18:42:14.294Z,8.65
2022-11-24T18:44:42.310Z,8.61
2022-11-24T18:47:08.929Z,8.54
2022-11-24T18:49:35.468Z,8.72
2022-11-24T18:52:02.011Z,8.80
2022-11-24T18:54:28.584Z,8.57
2022-11-24T18:57:00.222Z,8.43
2022-11-24T18:59:29.559Z,8.64
2022-11-24T19:01:57.773Z,8.60
2022-11-24T19:04:26.136Z,8.47
2022-11-24T19:06:52.672Z,8.46
2022-11-24T19:09:20.520Z,8.33
2022-11-24T19:11:47.575Z,8.61
2022-11-24T19:14:19.092Z,8.91
2022-11-24T19:16:47.923Z,8.76
2022-11-24T19:19:15.027Z,8.33
2022-11-24T19:21:41.634Z,8.65
2022-11-24T19:24:13.144Z,8.75
2022-11-24T19:26:40.295Z,8.64
2022-11-24T19:29:07.353Z,8.81
2022-11-24T19:31:34.758Z,8.70
2022-11-24T19:34:02.869Z,8.74
2022-11-24T19:36:29.386Z,8.41
2022-11-24T19:38:57.529Z,8.63
2022-11-24T19:41:29.771Z,8.38
2022-11-24T19:43:58.328Z,8.39
2022-11-24T19:46:27.309Z,8.45
2022-11-24T19:48:56.853Z,8.51
2022-11-24T19:51:26.243Z,8.60
2022-11-24T19:53:53.380Z,8.31
2022-11-24T19:56:21.707Z,8.07
2022-11-24T19:58:49.551Z,8.36
2022-11-24T20:01:18.957Z,8.22
2022-11-24T20:03:49.155Z,8.32
2022-11-24T20:06:16.358Z,8.27
2022-11-24T20:08:43.512Z,8.11
2022-11-24T20:11:16.230Z,8.17
2022-11-24T20:13:44.430Z,8.27
2022-11-24T20:16:13.728Z,7.76
2022-11-24T20:18:43.802Z,7.89
2022-11-24T20:21:11.489Z,8.15
2022-11-24T20:23:38.717Z,8.10
2022-11-24T20:26:08.893Z,7.97
2022-11-24T20:28:35.979Z,7.88
2022-11-24T20:31:09.126Z,7.58
2022-11-24T20:33:36.367Z,7.85
2022-11-24T20:36:09.122Z,7.93
2022-11-24T20:38:36.089Z,7.70
2022-11-24T20:41:24.011Z,7.82
2022-11-24T20:43:52.770Z,7.72
2022-11-24T20:46:22.064Z,8.02
2022-11-24T20:48:48.880Z,7.72
2022-11-24T20:51:18.326Z,7.79
2022-11-24T20:53:44.815Z,8.15
2022-11-24T20:56:19.517Z,7.99
2022-11-24T20:58:46.545Z,7.69
2022-11-24T21:01:15.937Z,7.38
2022-11-24T21:03:43.838Z,7.49
2022-11-24T21:06:12.290Z,7.64
2022-11-24T21:08:40.736Z,7.77
2022-11-24T21:11:10.936Z,7.59
2022-11-24T21:13:38.934Z,7.68
2022-11-24T21:16:20.182Z,7.57
2022-11-24T21:18:50.690Z,7.51
2022-11-24T21:21:18.298Z,7.37
2022-11-24T21:23:47.990Z,7.47
2022-11-24T21:26:17.107Z,7.68
2022-11-24T21:28:45.572Z,7.28
2022-11-24T21:31:16.426Z,7.67
2022-11-24T21:33:48.536Z,7.56
2022-11-24T21:36:17.804Z,7.65
2022-11-24T21:38:48.918Z,7.55
2022-11-24T21:41:15.434Z,7.59
2022-11-24T21:43:41.984Z,7.50
2022-11-24T21:46:10.954Z,7.63
2022-11-24T21:48:38.554Z,7.55
2022-11-24T21:51:07.526Z,7.72
2022-11-24T21:53:36.257Z,7.55
2022-11-24T21:56:05.677Z,7.44
2022-11-24T21:58:33.515Z,7.59
2022-11-24T22:01:05.915Z,7.41
2022-11-24T22:03:32.414Z,7.38
2022-11-24T22:06:00.105Z,7.53
2022-11-24T22:08:28.673Z,7.24
2022-11-24T22:11:01.638Z,7.32
2022-11-24T22:13:28.438Z,7.65
2022-11-24T22:16:05.769Z,7.48
2022-11-24T22:18:38.054Z,7.62
2022-11-24T22:21:06.440Z,7.39
2022-11-24T22:23:34.428Z,7.33
2022-11-24T22:26:17.786Z,7.31
2022-11-24T22:28:45.110Z,7.32
2022-11-24T22:31:14.656Z,7.41
2022-11-24T22:33:41.872Z,7.47
2022-11-24T22:36:10.225Z,7.44
2022-11-24T22:38:37.548Z,7.47
2022-11-24T22:41:09.183Z,7.51
2022-11-24T22:43:37.493Z,7.59
2022-11-24T22:46:07.718Z,7.45
2022-11-24T22:48:34.840Z,7.50
2022-11-24T22:51:21.287Z,7.43
2022-11-24T22:53:49.471Z,7.45
2022-11-24T22:56:16.574Z,7.40
2022-11-24T22:58:43.434Z,7.59
2022-11-24T23:01:18.995Z,7.49
2022-11-24T23:03:46.810Z,7.34
2022-11-24T23:06:15.639Z,7.65
2022-11-24T23:08:42.832Z,7.56
2022-11-24T23:11:22.917Z,7.48
2022-11-24T23:13:54.074Z,7.54
2022-11-24T23:16:20.934Z,7.52
2022-11-24T23:18:53.537Z,7.39
2022-11-24T23:21:26.464Z,7.49
2022-11-24T23:23:53.847Z,7.19
2022-11-24T23:26:23.753Z,7.50
2022-11-24T23:28:50.527Z,7.29
2022-11-24T23:31:19.397Z,7.38
2022-11-24T23:33:46.076Z,7.37
2022-11-24T23:36:17.845Z,7.34
2022-11-24T23:38:45.438Z,7.48
2022-11-24T23:41:17.516Z,7.41
2022-11-24T23:43:44.454Z,7.21
2022-11-24T23:46:12.639Z,7.39
2022-11-24T23:48:39.652Z,7.36
2022-11-24T23:51:07.525Z,7.29
2022-11-24T23:53:35.376Z,7.23
2022-11-24T23:56:02.680Z,7.37
2022-11-24T23:58:30.190Z,7.38
